sensor_id;sensor_type;location;lat;lon;timestamp;temperature;humidity
20560;DHT22;10438;51.454;6.718;2022-07-21T00:00:25;19.30;99.90
20560;DHT22;10438;51.454;6.718;2022-07-21T00:02:51;19.40;99.90
20560;DHT22;10438;51.454;6.718;2022-07-21T00:05:18;19.40;99.90
20560;DHT22;10438;51.454;6.718;2022-07-21T00:07:44;19.30;99.90
20560;DHT22;10438;51.454;6.718;2022-07-21T00:10:10;19.30;99.90
20560;DHT22;10438;51.454;6.718;2022-07-21T00:12:36;19.30;99.90
20560;DHT22;10438;51.454;6.718;2022-07-21T00:15:04;19.30;99.90
20560;DHT22;10438;51.454;6.718;2022-07-21T00:17:30;19.20;99.90
20560;DHT22;10438;51.454;6.718;2022-07-21T00:19:55;19.20;99.90
20560;DHT22;10438;51.454;6.718;2022-07-21T00:22:21;19.10;99.90
20560;DHT22;10438;51.454;6.718;2022-07-21T00:24:47;19.10;99.90
20560;DHT22;10438;51.454;6.718;2022-07-21T00:27:12;19.10;99.90
20560;DHT22;10438;51.454;6.718;2022-07-21T00:29:38;19.10;99.90
20560;DHT22;10438;51.454;6.718;2022-07-21T00:32:04;19.10;99.90
20560;DHT22;10438;51.454;6.718;2022-07-21T00:34:31;19.10;99.90
20560;DHT22;10438;51.454;6.718;2022-07-21T00:36:57;19.10;99.90
20560;DHT22;10438;51.454;6.718;2022-07-21T00:39:22;19.20;99.90
20560;DHT22;10438;51.454;6.718;2022-07-21T00:41:48;19.20;99.90
20560;DHT22;10438;51.454;6.718;2022-07-21T00:44:22;19.20;99.90
20560;DHT22;10438;51.454;6.718;2022-07-21T00:46:48;19.20;99.90
20560;DHT22;10438;51.454;6.718;2022-07-21T00:49:13;19.20;99.90
20560;DHT22;10438;51.454;6.718;2022-07-21T00:51:39;19.20;99.90
20560;DHT22;10438;51.454;6.718;2022-07-21T00:54:04;19.20;99.90
20560;DHT22;10438;51.454;6.718;2022-07-21T00:56:30;19.20;99.90
20560;DHT22;10438;51.454;6.718;2022-07-21T00:58:56;19.20;99.90
20560;DHT22;10438;51.454;6.718;2022-07-21T01:01:21;19.10;99.90
20560;DHT22;10438;51.454;6.718;2022-07-21T01:03:47;19.20;99.90
20560;DHT22;10438;51.454;6.718;2022-07-21T01:06:13;19.10;99.90
20560;DHT22;10438;51.454;6.718;2022-07-21T01:08:38;19.10;99.90
20560;DHT22;10438;51.454;6.718;2022-07-21T01:11:04;19.10;99.90
20560;DHT22;10438;51.454;6.718;2022-07-21T01:13:30;19.10;99.90
20560;DHT22;10438;51.454;6.718;2022-07-21T01:15:56;19.10;99.90
20560;DHT22;10438;51.454;6.718;2022-07-21T01:18:21;19.10;99.90
20560;DHT22;10438;51.454;6.718;2022-07-21T01:20:53;19.10;99.90
20560;DHT22;10438;51.454;6.718;2022-07-21T01:23:19;19.10;99.90
20560;DHT22;10438;51.454;6.718;2022-07-21T01:25:49;19.20;99.90
20560;DHT22;10438;51.454;6.718;2022-07-21T01:28:15;19.10;99.90
20560;DHT22;10438;51.454;6.718;2022-07-21T01:30:41;19.10;99.90
20560;DHT22;10438;51.454;6.718;2022-07-21T01:33:07;19.10;99.90
20560;DHT22;10438;51.454;6.718;2022-07-21T01:35:32;19.20;99.90
20560;DHT22;10438;51.454;6.718;2022-07-21T01:37:59;19.20;99.90
20560;DHT22;10438;51.454;6.718;2022-07-21T01:40:25;19.20;99.90
20560;DHT22;10438;51.454;6.718;2022-07-21T01:43:09;19.10;99.90
20560;DHT22;10438;51.454;6.718;2022-07-21T01:45:34;19.00;99.90
20560;DHT22;10438;51.454;6.718;2022-07-21T01:48:00;19.00;99.90
20560;DHT22;10438;51.454;6.718;2022-07-21T01:50:26;19.00;99.90
20560;DHT22;10438;51.454;6.718;2022-07-21T01:52:53;18.90;99.90
20560;DHT22;10438;51.454;6.718;2022-07-21T01:55:20;18.80;99.90
20560;DHT22;10438;51.454;6.718;2022-07-21T01:57:46;18.80;99.90
20560;DHT22;10438;51.454;6.718;2022-07-21T02:00:11;18.70;99.90
20560;DHT22;10438;51.454;6.718;2022-07-21T02:02:37;18.70;99.90
20560;DHT22;10438;51.454;6.718;2022-07-21T02:05:03;18.70;99.90
20560;DHT22;10438;51.454;6.718;2022-07-21T02:07:28;18.70;99.90
20560;DHT22;10438;51.454;6.718;2022-07-21T02:09:54;18.70;99.90
20560;DHT22;10438;51.454;6.718;2022-07-21T02:12:19;18.70;99.90
20560;DHT22;10438;51.454;6.718;2022-07-21T02:14:45;18.70;99.90
20560;DHT22;10438;51.454;6.718;2022-07-21T02:17:10;18.60;99.90
20560;DHT22;10438;51.454;6.718;2022-07-21T02:19:36;18.70;99.90
20560;DHT22;10438;51.454;6.718;2022-07-21T02:22:02;18.60;99.90
20560;DHT22;10438;51.454;6.718;2022-07-21T02:24:27;18.60;99.90
20560;DHT22;10438;51.454;6.718;2022-07-21T02:26:53;18.60;99.90
20560;DHT22;10438;51.454;6.718;2022-07-21T02:29:18;18.60;99.90
20560;DHT22;10438;51.454;6.718;2022-07-21T02:31:44;18.60;99.90
20560;DHT22;10438;51.454;6.718;2022-07-21T02:34:10;18.60;99.90
20560;DHT22;10438;51.454;6.718;2022-07-21T02:36:35;18.60;99.90
20560;DHT22;10438;51.454;6.718;2022-07-21T02:39:01;18.60;99.90
20560;DHT22;10438;51.454;6.718;2022-07-21T02:41:26;18.60;99.90
20560;DHT22;10438;51.454;6.718;2022-07-21T02:43:52;18.60;99.90
20560;DHT22;10438;51.454;6.718;2022-07-21T02:46:17;18.60;99.90
20560;DHT22;10438;51.454;6.718;2022-07-21T02:48:43;18.60;99.90
20560;DHT22;10438;51.454;6.718;2022-07-21T02:51:08;18.60;99.90
20560;DHT22;10438;51.454;6.718;2022-07-21T02:53:34;18.70;99.90
20560;DHT22;10438;51.454;6.718;2022-07-21T02:56:00;18.70;99.90
20560;DHT22;10438;51.454;6.718;2022-07-21T02:58:27;18.60;99.90
20560;DHT22;10438;51.454;6.718;2022-07-21T03:01:03;18.60;99.90
20560;DHT22;10438;51.454;6.718;2022-07-21T03:03:34;18.70;99.90
20560;DHT22;10438;51.454;6.718;2022-07-21T03:06:00;18.70;99.90
20560;DHT22;10438;51.454;6.718;2022-07-21T03:08:28;18.70;99.90
20560;DHT22;10438;51.454;6.718;2022-07-21T03:10:54;18.70;99.90
20560;DHT22;10438;51.454;6.718;2022-07-21T03:13:20;18.70;99.90
20560;DHT22;10438;51.454;6.718;2022-07-21T03:15:46;18.70;99.90
20560;DHT22;10438;51.454;6.718;2022-07-21T03:18:11;18.70;99.90
20560;DHT22;10438;51.454;6.718;2022-07-21T03:20:40;18.80;99.90
20560;DHT22;10438;51.454;6.718;2022-07-21T03:23:06;18.80;99.90
20560;DHT22;10438;51.454;6.718;2022-07-21T03:25:31;18.80;99.90
20560;DHT22;10438;51.454;6.718;2022-07-21T03:27:57;18.80;99.90
20560;DHT22;10438;51.454;6.718;2022-07-21T03:30:23;18.80;99.90
20560;DHT22;10438;51.454;6.718;2022-07-21T03:32:50;18.80;99.90
20560;DHT22;10438;51.454;6.718;2022-07-21T03:35:16;18.80;99.90
20560;DHT22;10438;51.454;6.718;2022-07-21T03:37:53;18.80;99.90
20560;DHT22;10438;51.454;6.718;2022-07-21T03:40:21;18.80;99.90
20560;DHT22;10438;51.454;6.718;2022-07-21T03:42:49;18.80;99.90
20560;DHT22;10438;51.454;6.718;2022-07-21T03:45:15;18.80;99.90
20560;DHT22;10438;51.454;6.718;2022-07-21T03:47:41;18.90;99.90
20560;DHT22;10438;51.454;6.718;2022-07-21T03:50:07;18.90;99.90
20560;DHT22;10438;51.454;6.718;2022-07-21T03:52:33;18.80;99.90
20560;DHT22;10438;51.454;6.718;2022-07-21T03:54:58;18.70;99.90
20560;DHT22;10438;51.454;6.718;2022-07-21T03:57:44;18.70;99.90
20560;DHT22;10438;51.454;6.718;2022-07-21T04:00:14;18.70;99.90
20560;DHT22;10438;51.454;6.718;2022-07-21T04:02:40;18.70;99.90
20560;DHT22;10438;51.454;6.718;2022-07-21T04:05:10;18.70;99.90
20560;DHT22;10438;51.454;6.718;2022-07-21T04:07:37;18.80;99.90
20560;DHT22;10438;51.454;6.718;2022-07-21T04:10:03;18.80;99.90
20560;DHT22;10438;51.454;6.718;2022-07-21T04:12:29;18.80;99.90
20560;DHT22;10438;51.454;6.718;2022-07-21T04:14:55;18.70;99.90
20560;DHT22;10438;51.454;6.718;2022-07-21T04:17:21;18.80;99.90
20560;DHT22;10438;51.454;6.718;2022-07-21T04:19:47;18.80;99.90
20560;DHT22;10438;51.454;6.718;2022-07-21T04:22:12;18.80;99.90
20560;DHT22;10438;51.454;6.718;2022-07-21T04:24:38;18.80;99.90
20560;DHT22;10438;51.454;6.718;2022-07-21T04:27:03;18.80;99.90
20560;DHT22;10438;51.454;6.718;2022-07-21T04:29:29;18.90;99.90
20560;DHT22;10438;51.454;6.718;2022-07-21T04:31:55;18.80;99.90
20560;DHT22;10438;51.454;6.718;2022-07-21T04:34:20;18.80;99.90
20560;DHT22;10438;51.454;6.718;2022-07-21T04:36:46;18.80;99.90
20560;DHT22;10438;51.454;6.718;2022-07-21T04:39:11;18.80;99.90
20560;DHT22;10438;51.454;6.718;2022-07-21T04:41:37;18.80;99.90
20560;DHT22;10438;51.454;6.718;2022-07-21T04:44:02;18.80;99.90
20560;DHT22;10438;51.454;6.718;2022-07-21T04:46:28;18.70;99.90
20560;DHT22;10438;51.454;6.718;2022-07-21T04:48:53;18.80;99.90
20560;DHT22;10438;51.454;6.718;2022-07-21T04:51:19;18.80;99.90
20560;DHT22;10438;51.454;6.718;2022-07-21T04:53:44;18.80;99.90
20560;DHT22;10438;51.454;6.718;2022-07-21T04:56:10;18.80;99.90
20560;DHT22;10438;51.454;6.718;2022-07-21T04:58:35;18.90;99.90
20560;DHT22;10438;51.454;6.718;2022-07-21T05:01:01;18.90;99.90
20560;DHT22;10438;51.454;6.718;2022-07-21T05:03:26;18.90;99.90
20560;DHT22;10438;51.454;6.718;2022-07-21T05:05:52;18.90;99.90
20560;DHT22;10438;51.454;6.718;2022-07-21T05:08:17;18.90;99.90
20560;DHT22;10438;51.454;6.718;2022-07-21T05:10:43;18.80;99.90
20560;DHT22;10438;51.454;6.718;2022-07-21T05:13:08;18.80;99.90
20560;DHT22;10438;51.454;6.718;2022-07-21T05:15:34;18.90;99.90
20560;DHT22;10438;51.454;6.718;2022-07-21T05:18:00;18.90;99.90
20560;DHT22;10438;51.454;6.718;2022-07-21T05:20:25;18.90;99.90
20560;DHT22;10438;51.454;6.718;2022-07-21T05:22:50;18.90;99.90
20560;DHT22;10438;51.454;6.718;2022-07-21T05:25:16;19.00;99.90
20560;DHT22;10438;51.454;6.718;2022-07-21T05:27:41;19.00;99.90
20560;DHT22;10438;51.454;6.718;2022-07-21T05:30:07;19.00;99.90
20560;DHT22;10438;51.454;6.718;2022-07-21T05:32:33;19.00;99.90
20560;DHT22;10438;51.454;6.718;2022-07-21T05:34:59;19.00;99.90
20560;DHT22;10438;51.454;6.718;2022-07-21T05:37:24;19.00;99.90
20560;DHT22;10438;51.454;6.718;2022-07-21T05:39:51;19.00;99.90
20560;DHT22;10438;51.454;6.718;2022-07-21T05:42:16;19.00;99.90
20560;DHT22;10438;51.454;6.718;2022-07-21T05:44:43;19.00;99.90
20560;DHT22;10438;51.454;6.718;2022-07-21T05:47:08;19.00;99.90
20560;DHT22;10438;51.454;6.718;2022-07-21T05:49:34;18.90;99.90
20560;DHT22;10438;51.454;6.718;2022-07-21T05:51:59;18.90;99.90
20560;DHT22;10438;51.454;6.718;2022-07-21T05:54:25;19.00;99.90
20560;DHT22;10438;51.454;6.718;2022-07-21T05:56:50;19.00;99.90
20560;DHT22;10438;51.454;6.718;2022-07-21T05:59:16;19.00;99.90
20560;DHT22;10438;51.454;6.718;2022-07-21T06:01:41;19.00;99.90
20560;DHT22;10438;51.454;6.718;2022-07-21T06:04:07;19.10;99.90
20560;DHT22;10438;51.454;6.718;2022-07-21T06:06:32;19.10;99.90
20560;DHT22;10438;51.454;6.718;2022-07-21T06:08:58;19.20;99.90
20560;DHT22;10438;51.454;6.718;2022-07-21T06:11:24;19.20;99.90
20560;DHT22;10438;51.454;6.718;2022-07-21T06:13:50;19.30;99.90
20560;DHT22;10438;51.454;6.718;2022-07-21T06:16:15;19.30;99.90
20560;DHT22;10438;51.454;6.718;2022-07-21T06:18:41;19.40;99.90
20560;DHT22;10438;51.454;6.718;2022-07-21T06:21:07;19.40;99.90
20560;DHT22;10438;51.454;6.718;2022-07-21T06:23:32;19.40;99.90
20560;DHT22;10438;51.454;6.718;2022-07-21T06:25:58;19.50;99.90
20560;DHT22;10438;51.454;6.718;2022-07-21T06:28:23;19.50;99.90
20560;DHT22;10438;51.454;6.718;2022-07-21T06:30:49;19.60;99.90
20560;DHT22;10438;51.454;6.718;2022-07-21T06:33:15;19.60;99.90
20560;DHT22;10438;51.454;6.718;2022-07-21T06:35:41;19.70;99.90
20560;DHT22;10438;51.454;6.718;2022-07-21T06:38:07;19.60;99.90
20560;DHT22;10438;51.454;6.718;2022-07-21T06:40:32;19.70;99.90
20560;DHT22;10438;51.454;6.718;2022-07-21T06:42:58;19.70;99.90
20560;DHT22;10438;51.454;6.718;2022-07-21T06:45:24;19.70;99.90
20560;DHT22;10438;51.454;6.718;2022-07-21T06:47:50;19.70;99.90
20560;DHT22;10438;51.454;6.718;2022-07-21T06:50:23;19.70;99.90
20560;DHT22;10438;51.454;6.718;2022-07-21T06:52:49;19.70;99.90
20560;DHT22;10438;51.454;6.718;2022-07-21T06:55:14;19.70;99.90
20560;DHT22;10438;51.454;6.718;2022-07-21T06:57:40;19.70;99.90
20560;DHT22;10438;51.454;6.718;2022-07-21T07:00:06;19.70;99.90
20560;DHT22;10438;51.454;6.718;2022-07-21T07:02:33;19.70;99.90
20560;DHT22;10438;51.454;6.718;2022-07-21T07:04:58;19.70;99.90
20560;DHT22;10438;51.454;6.718;2022-07-21T07:07:24;19.80;99.90
20560;DHT22;10438;51.454;6.718;2022-07-21T07:09:49;19.90;99.90
20560;DHT22;10438;51.454;6.718;2022-07-21T07:12:14;20.00;99.90
20560;DHT22;10438;51.454;6.718;2022-07-21T07:14:40;20.10;99.90
20560;DHT22;10438;51.454;6.718;2022-07-21T07:17:06;20.10;99.90
20560;DHT22;10438;51.454;6.718;2022-07-21T07:19:32;20.20;99.90
20560;DHT22;10438;51.454;6.718;2022-07-21T07:21:58;20.30;99.90
20560;DHT22;10438;51.454;6.718;2022-07-21T07:24:24;20.30;99.90
20560;DHT22;10438;51.454;6.718;2022-07-21T07:26:49;20.30;99.90
20560;DHT22;10438;51.454;6.718;2022-07-21T07:29:15;20.30;99.90
20560;DHT22;10438;51.454;6.718;2022-07-21T07:31:40;20.40;99.90
20560;DHT22;10438;51.454;6.718;2022-07-21T07:34:06;20.50;99.90
20560;DHT22;10438;51.454;6.718;2022-07-21T07:36:32;20.50;99.90
20560;DHT22;10438;51.454;6.718;2022-07-21T07:38:58;20.50;99.90
20560;DHT22;10438;51.454;6.718;2022-07-21T07:41:25;20.40;99.90
20560;DHT22;10438;51.454;6.718;2022-07-21T07:43:52;20.40;99.90
20560;DHT22;10438;51.454;6.718;2022-07-21T07:46:20;20.40;99.90
20560;DHT22;10438;51.454;6.718;2022-07-21T07:48:46;20.50;99.90
20560;DHT22;10438;51.454;6.718;2022-07-21T07:51:13;20.60;99.90
20560;DHT22;10438;51.454;6.718;2022-07-21T07:53:40;20.70;99.90
20560;DHT22;10438;51.454;6.718;2022-07-21T07:56:06;20.90;99.90
20560;DHT22;10438;51.454;6.718;2022-07-21T07:58:32;20.90;99.90
20560;DHT22;10438;51.454;6.718;2022-07-21T08:00:58;21.10;99.90
20560;DHT22;10438;51.454;6.718;2022-07-21T08:03:25;21.00;99.90
20560;DHT22;10438;51.454;6.718;2022-07-21T08:05:52;21.00;99.90
20560;DHT22;10438;51.454;6.718;2022-07-21T08:08:17;21.00;99.90
20560;DHT22;10438;51.454;6.718;2022-07-21T08:10:44;21.10;99.90
20560;DHT22;10438;51.454;6.718;2022-07-21T08:13:12;21.20;99.90
20560;DHT22;10438;51.454;6.718;2022-07-21T08:15:38;21.10;99.90
20560;DHT22;10438;51.454;6.718;2022-07-21T08:18:05;21.20;99.90
20560;DHT22;10438;51.454;6.718;2022-07-21T08:20:31;21.20;99.90
20560;DHT22;10438;51.454;6.718;2022-07-21T08:22:57;21.20;99.90
20560;DHT22;10438;51.454;6.718;2022-07-21T08:25:22;21.00;99.90
20560;DHT22;10438;51.454;6.718;2022-07-21T08:27:48;20.80;99.90
20560;DHT22;10438;51.454;6.718;2022-07-21T08:30:13;20.80;99.90
20560;DHT22;10438;51.454;6.718;2022-07-21T08:32:39;20.80;99.90
20560;DHT22;10438;51.454;6.718;2022-07-21T08:35:05;20.90;99.90
20560;DHT22;10438;51.454;6.718;2022-07-21T08:37:34;21.10;99.90
20560;DHT22;10438;51.454;6.718;2022-07-21T08:40:03;21.30;99.90
20560;DHT22;10438;51.454;6.718;2022-07-21T08:42:29;21.60;99.90
20560;DHT22;10438;51.454;6.718;2022-07-21T08:44:55;21.80;99.90
20560;DHT22;10438;51.454;6.718;2022-07-21T08:47:20;21.80;99.90
20560;DHT22;10438;51.454;6.718;2022-07-21T08:49:46;21.80;99.90
20560;DHT22;10438;51.454;6.718;2022-07-21T08:52:12;21.90;99.90
20560;DHT22;10438;51.454;6.718;2022-07-21T08:54:38;21.90;99.90
20560;DHT22;10438;51.454;6.718;2022-07-21T08:57:04;21.90;99.90
20560;DHT22;10438;51.454;6.718;2022-07-21T08:59:29;21.90;99.90
20560;DHT22;10438;51.454;6.718;2022-07-21T09:01:55;21.90;99.90
20560;DHT22;10438;51.454;6.718;2022-07-21T09:04:22;21.80;99.90
20560;DHT22;10438;51.454;6.718;2022-07-21T09:07:05;21.80;99.90
20560;DHT22;10438;51.454;6.718;2022-07-21T09:09:32;21.80;99.90
20560;DHT22;10438;51.454;6.718;2022-07-21T09:11:59;22.00;99.90
20560;DHT22;10438;51.454;6.718;2022-07-21T09:14:28;22.20;99.90
20560;DHT22;10438;51.454;6.718;2022-07-21T09:16:59;22.30;99.90
20560;DHT22;10438;51.454;6.718;2022-07-21T09:19:36;22.40;99.90
20560;DHT22;10438;51.454;6.718;2022-07-21T09:22:06;22.50;99.90
20560;DHT22;10438;51.454;6.718;2022-07-21T09:24:33;22.50;99.90
20560;DHT22;10438;51.454;6.718;2022-07-21T09:27:12;22.60;99.90
20560;DHT22;10438;51.454;6.718;2022-07-21T09:29:53;22.50;99.90
20560;DHT22;10438;51.454;6.718;2022-07-21T09:32:25;22.60;99.90
20560;DHT22;10438;51.454;6.718;2022-07-21T09:37:18;22.80;99.90
20560;DHT22;10438;51.454;6.718;2022-07-21T09:42:22;22.80;99.90
20560;DHT22;10438;51.454;6.718;2022-07-21T09:45:09;22.70;99.90
20560;DHT22;10438;51.454;6.718;2022-07-21T09:47:36;22.60;99.90
20560;DHT22;10438;51.454;6.718;2022-07-21T09:50:06;22.60;99.90
20560;DHT22;10438;51.454;6.718;2022-07-21T09:52:35;22.50;99.90
20560;DHT22;10438;51.454;6.718;2022-07-21T09:55:13;22.40;99.90
20560;DHT22;10438;51.454;6.718;2022-07-21T09:57:39;22.30;99.90
20560;DHT22;10438;51.454;6.718;2022-07-21T10:00:07;22.20;99.90
20560;DHT22;10438;51.454;6.718;2022-07-21T10:02:35;21.90;99.90
20560;DHT22;10438;51.454;6.718;2022-07-21T10:05:05;21.70;99.90
20560;DHT22;10438;51.454;6.718;2022-07-21T10:07:32;21.50;99.90
20560;DHT22;10438;51.454;6.718;2022-07-21T10:09:58;21.30;99.90
20560;DHT22;10438;51.454;6.718;2022-07-21T10:12:25;21.20;99.90
20560;DHT22;10438;51.454;6.718;2022-07-21T10:14:51;21.10;99.90
20560;DHT22;10438;51.454;6.718;2022-07-21T10:17:18;21.00;99.90
20560;DHT22;10438;51.454;6.718;2022-07-21T10:23:03;20.90;99.90
20560;DHT22;10438;51.454;6.718;2022-07-21T10:25:31;20.70;99.90
20560;DHT22;10438;51.454;6.718;2022-07-21T10:30:40;20.40;99.90
20560;DHT22;10438;51.454;6.718;2022-07-21T10:33:06;20.30;99.90
20560;DHT22;10438;51.454;6.718;2022-07-21T10:35:32;20.20;99.90
20560;DHT22;10438;51.454;6.718;2022-07-21T10:38:00;20.20;99.90
20560;DHT22;10438;51.454;6.718;2022-07-21T10:45:34;20.20;99.90
20560;DHT22;10438;51.454;6.718;2022-07-21T10:48:01;20.20;99.90
20560;DHT22;10438;51.454;6.718;2022-07-21T10:50:38;20.10;99.90
20560;DHT22;10438;51.454;6.718;2022-07-21T10:53:18;20.00;99.90
20560;DHT22;10438;51.454;6.718;2022-07-21T10:55:49;19.90;99.90
20560;DHT22;10438;51.454;6.718;2022-07-21T10:58:26;19.70;99.90
20560;DHT22;10438;51.454;6.718;2022-07-21T11:01:02;19.60;99.90
20560;DHT22;10438;51.454;6.718;2022-07-21T11:03:34;19.50;99.90
20560;DHT22;10438;51.454;6.718;2022-07-21T11:11:09;19.30;99.90
20560;DHT22;10438;51.454;6.718;2022-07-21T11:13:56;19.20;99.90
20560;DHT22;10438;51.454;6.718;2022-07-21T11:16:22;19.30;99.90
20560;DHT22;10438;51.454;6.718;2022-07-21T11:18:48;19.20;99.90
20560;DHT22;10438;51.454;6.718;2022-07-21T11:21:15;19.20;99.90
20560;DHT22;10438;51.454;6.718;2022-07-21T11:23:45;19.20;99.90
20560;DHT22;10438;51.454;6.718;2022-07-21T11:26:12;19.30;99.90
20560;DHT22;10438;51.454;6.718;2022-07-21T11:28:38;19.20;99.90
20560;DHT22;10438;51.454;6.718;2022-07-21T11:31:18;19.20;99.90
20560;DHT22;10438;51.454;6.718;2022-07-21T11:33:48;19.20;99.90
20560;DHT22;10438;51.454;6.718;2022-07-21T11:36:25;19.20;99.90
20560;DHT22;10438;51.454;6.718;2022-07-21T11:39:20;19.20;99.90
20560;DHT22;10438;51.454;6.718;2022-07-21T11:41:49;19.20;99.90
20560;DHT22;10438;51.454;6.718;2022-07-21T11:44:23;19.20;99.90
20560;DHT22;10438;51.454;6.718;2022-07-21T11:46:52;19.10;99.90
20560;DHT22;10438;51.454;6.718;2022-07-21T11:49:18;19.20;99.90
20560;DHT22;10438;51.454;6.718;2022-07-21T11:51:52;19.10;99.90
20560;DHT22;10438;51.454;6.718;2022-07-21T11:54:26;19.10;99.90
20560;DHT22;10438;51.454;6.718;2022-07-21T11:56:53;19.20;99.90
20560;DHT22;10438;51.454;6.718;2022-07-21T11:59:19;19.20;99.90
20560;DHT22;10438;51.454;6.718;2022-07-21T12:04:42;19.30;99.90
20560;DHT22;10438;51.454;6.718;2022-07-21T12:07:13;19.40;99.90
20560;DHT22;10438;51.454;6.718;2022-07-21T12:09:42;19.50;99.90
20560;DHT22;10438;51.454;6.718;2022-07-21T12:12:08;19.50;99.90
20560;DHT22;10438;51.454;6.718;2022-07-21T12:14:48;19.50;99.90
20560;DHT22;10438;51.454;6.718;2022-07-21T12:17:38;19.60;99.90
20560;DHT22;10438;51.454;6.718;2022-07-21T12:20:05;19.70;99.90
20560;DHT22;10438;51.454;6.718;2022-07-21T12:22:36;19.80;99.90
20560;DHT22;10438;51.454;6.718;2022-07-21T12:25:02;19.80;99.90
20560;DHT22;10438;51.454;6.718;2022-07-21T12:27:28;19.70;99.90
20560;DHT22;10438;51.454;6.718;2022-07-21T12:29:54;19.70;99.90
20560;DHT22;10438;51.454;6.718;2022-07-21T12:32:47;19.60;99.90
20560;DHT22;10438;51.454;6.718;2022-07-21T12:35:24;19.70;99.90
20560;DHT22;10438;51.454;6.718;2022-07-21T12:38:01;19.70;99.90
20560;DHT22;10438;51.454;6.718;2022-07-21T12:40:28;19.60;99.90
20560;DHT22;10438;51.454;6.718;2022-07-21T12:43:15;19.60;99.90
20560;DHT22;10438;51.454;6.718;2022-07-21T12:46:02;19.50;99.90
20560;DHT22;10438;51.454;6.718;2022-07-21T12:48:30;19.30;99.90
20560;DHT22;10438;51.454;6.718;2022-07-21T12:53:32;18.90;99.90
20560;DHT22;10438;51.454;6.718;2022-07-21T12:55:58;18.90;99.90
20560;DHT22;10438;51.454;6.718;2022-07-21T12:58:23;18.80;99.90
20560;DHT22;10438;51.454;6.718;2022-07-21T13:00:49;18.70;99.90
20560;DHT22;10438;51.454;6.718;2022-07-21T13:03:15;18.80;99.90
20560;DHT22;10438;51.454;6.718;2022-07-21T13:05:40;18.80;99.90
20560;DHT22;10438;51.454;6.718;2022-07-21T13:08:06;18.70;99.90
20560;DHT22;10438;51.454;6.718;2022-07-21T13:10:32;18.80;99.90
20560;DHT22;10438;51.454;6.718;2022-07-21T13:12:57;18.80;99.90
20560;DHT22;10438;51.454;6.718;2022-07-21T13:15:23;18.90;99.90
20560;DHT22;10438;51.454;6.718;2022-07-21T13:17:49;18.90;99.90
20560;DHT22;10438;51.454;6.718;2022-07-21T13:20:15;18.80;99.90
20560;DHT22;10438;51.454;6.718;2022-07-21T13:22:41;18.80;99.90
20560;DHT22;10438;51.454;6.718;2022-07-21T13:25:07;18.70;99.90
20560;DHT22;10438;51.454;6.718;2022-07-21T13:27:33;18.60;99.90
20560;DHT22;10438;51.454;6.718;2022-07-21T13:30:00;18.60;99.90
20560;DHT22;10438;51.454;6.718;2022-07-21T13:32:26;18.60;99.90
20560;DHT22;10438;51.454;6.718;2022-07-21T13:34:51;18.60;99.90
20560;DHT22;10438;51.454;6.718;2022-07-21T13:37:17;18.60;99.90
20560;DHT22;10438;51.454;6.718;2022-07-21T13:39:42;18.60;99.90
20560;DHT22;10438;51.454;6.718;2022-07-21T13:42:08;18.60;99.90
20560;DHT22;10438;51.454;6.718;2022-07-21T13:44:34;18.60;99.90
20560;DHT22;10438;51.454;6.718;2022-07-21T13:47:00;18.60;99.90
20560;DHT22;10438;51.454;6.718;2022-07-21T13:49:26;18.60;99.90
20560;DHT22;10438;51.454;6.718;2022-07-21T13:51:51;18.60;99.90
20560;DHT22;10438;51.454;6.718;2022-07-21T13:54:17;18.60;99.90
20560;DHT22;10438;51.454;6.718;2022-07-21T13:56:42;18.70;99.90
20560;DHT22;10438;51.454;6.718;2022-07-21T13:59:09;18.70;99.90
20560;DHT22;10438;51.454;6.718;2022-07-21T14:01:35;18.70;99.90
20560;DHT22;10438;51.454;6.718;2022-07-21T14:04:00;18.70;99.90
20560;DHT22;10438;51.454;6.718;2022-07-21T14:06:26;18.70;99.90
20560;DHT22;10438;51.454;6.718;2022-07-21T14:08:51;18.60;99.90
20560;DHT22;10438;51.454;6.718;2022-07-21T14:11:17;18.50;99.90
20560;DHT22;10438;51.454;6.718;2022-07-21T14:13:43;18.50;99.90
20560;DHT22;10438;51.454;6.718;2022-07-21T14:16:09;18.40;99.90
20560;DHT22;10438;51.454;6.718;2022-07-21T14:18:35;18.40;99.90
20560;DHT22;10438;51.454;6.718;2022-07-21T14:21:01;18.50;99.90
20560;DHT22;10438;51.454;6.718;2022-07-21T14:23:26;18.50;99.90
20560;DHT22;10438;51.454;6.718;2022-07-21T14:25:53;18.60;99.90
20560;DHT22;10438;51.454;6.718;2022-07-21T14:28:19;18.60;99.90
20560;DHT22;10438;51.454;6.718;2022-07-21T14:30:45;18.70;99.90
20560;DHT22;10438;51.454;6.718;2022-07-21T14:33:11;18.60;99.90
20560;DHT22;10438;51.454;6.718;2022-07-21T14:35:37;18.60;99.90
20560;DHT22;10438;51.454;6.718;2022-07-21T14:38:03;18.60;99.90
20560;DHT22;10438;51.454;6.718;2022-07-21T14:40:29;18.60;99.90
20560;DHT22;10438;51.454;6.718;2022-07-21T14:42:54;18.50;99.90
20560;DHT22;10438;51.454;6.718;2022-07-21T14:45:21;18.50;99.90
20560;DHT22;10438;51.454;6.718;2022-07-21T14:47:47;18.40;99.90
20560;DHT22;10438;51.454;6.718;2022-07-21T14:50:13;18.50;99.90
20560;DHT22;10438;51.454;6.718;2022-07-21T14:52:40;18.50;99.90
20560;DHT22;10438;51.454;6.718;2022-07-21T14:55:07;18.60;99.90
20560;DHT22;10438;51.454;6.718;2022-07-21T14:57:33;18.60;99.90
20560;DHT22;10438;51.454;6.718;2022-07-21T14:59:59;18.60;99.90
20560;DHT22;10438;51.454;6.718;2022-07-21T15:02:25;18.60;99.90
20560;DHT22;10438;51.454;6.718;2022-07-21T15:04:50;18.70;99.90
20560;DHT22;10438;51.454;6.718;2022-07-21T15:07:16;18.70;99.90
20560;DHT22;10438;51.454;6.718;2022-07-21T15:09:42;18.70;99.90
20560;DHT22;10438;51.454;6.718;2022-07-21T15:12:09;18.70;99.90
20560;DHT22;10438;51.454;6.718;2022-07-21T15:14:35;18.70;99.90
20560;DHT22;10438;51.454;6.718;2022-07-21T15:17:01;18.70;99.90
20560;DHT22;10438;51.454;6.718;2022-07-21T15:19:27;18.60;99.90
20560;DHT22;10438;51.454;6.718;2022-07-21T15:21:52;18.60;99.90
20560;DHT22;10438;51.454;6.718;2022-07-21T15:24:18;18.50;99.90
20560;DHT22;10438;51.454;6.718;2022-07-21T15:26:43;18.50;99.90
20560;DHT22;10438;51.454;6.718;2022-07-21T15:29:09;18.40;99.90
20560;DHT22;10438;51.454;6.718;2022-07-21T15:31:35;18.40;99.90
20560;DHT22;10438;51.454;6.718;2022-07-21T15:34:01;18.40;99.90
20560;DHT22;10438;51.454;6.718;2022-07-21T15:36:27;18.40;99.90
20560;DHT22;10438;51.454;6.718;2022-07-21T15:38:52;18.30;99.90
20560;DHT22;10438;51.454;6.718;2022-07-21T15:41:18;18.30;99.90
20560;DHT22;10438;51.454;6.718;2022-07-21T15:43:44;18.30;99.90
20560;DHT22;10438;51.454;6.718;2022-07-21T15:46:09;18.40;99.90
20560;DHT22;10438;51.454;6.718;2022-07-21T15:48:36;18.40;99.90
20560;DHT22;10438;51.454;6.718;2022-07-21T15:51:01;18.40;99.90
20560;DHT22;10438;51.454;6.718;2022-07-21T15:53:28;18.40;99.90
20560;DHT22;10438;51.454;6.718;2022-07-21T15:55:54;18.50;99.90